createdAt,value
2019-04-10T00:00:59.273Z,59.80
2019-04-10T00:03:34.106Z,59.70
2019-04-10T00:06:04.681Z,59.56
2019-04-10T00:08:36.679Z,59.37
2019-04-10T00:11:08.642Z,59.29
2019-04-10T00:13:40.851Z,59.17
2019-04-10T00:16:12.442Z,59.08
2019-04-10T00:18:44.347Z,58.97
2019-04-10T00:21:17.443Z,58.87
2019-04-10T00:23:49.434Z,58.75
2019-04-10T00:26:21.663Z,58.69
2019-04-10T00:28:53.913Z,58.60
2019-04-10T00:31:26.349Z,58.41
2019-04-10T00:33:58.976Z,58.36
2019-04-10T00:36:30.601Z,58.29
2019-04-10T00:39:02.407Z,58.24
2019-04-10T00:41:34.448Z,58.26
2019-04-10T00:44:06.184Z,58.18
2019-04-10T00:46:38.049Z,58.07
2019-04-10T00:49:09.782Z,58.01
2019-04-10T00:51:41.655Z,58.00
2019-04-10T00:54:14.589Z,57.92
2019-04-10T00:56:46.370Z,57.91
2019-04-10T00:59:18.017Z,57.86
2019-04-10T01:01:49.643Z,57.77
2019-04-10T01:04:22.819Z,57.76
2019-04-10T01:06:54.603Z,57.73
2019-04-10T01:09:27.063Z,57.67
2019-04-10T01:11:59.374Z,57.64
2019-04-10T01:14:31.809Z,57.63
2019-04-10T01:17:04.080Z,57.60
2019-04-10T01:19:36.346Z,57.51
2019-04-10T01:22:08.701Z,57.48
2019-04-10T01:24:40.475Z,57.52
2019-04-10T01:27:12.144Z,57.50
2019-04-10T01:29:44.133Z,57.46
2019-04-10T01:32:15.811Z,57.46
2019-04-10T01:34:47.617Z,57.41
2019-04-10T01:37:19.473Z,57.39
2019-04-10T01:39:52.743Z,57.44
2019-04-10T01:42:24.869Z,57.43
2019-04-10T01:44:57.326Z,57.45
2019-04-10T01:47:29.136Z,57.46
2019-04-10T01:50:02.302Z,57.46
2019-04-10T01:52:35.064Z,57.44
2019-04-10T01:55:17.265Z,57.46
2019-04-10T01:57:41.756Z,57.50
2019-04-10T02:00:17.206Z,57.49
2019-04-10T02:02:53.798Z,57.48
2019-04-10T02:05:25.870Z,57.50
2019-04-10T02:08:05.266Z,57.53
2019-04-10T02:10:32.085Z,57.53
2019-04-10T02:13:03.796Z,57.55
2019-04-10T02:15:36.348Z,57.57
2019-04-10T02:18:08.865Z,57.61
2019-04-10T02:20:40.513Z,57.60
2019-04-10T02:23:12.275Z,57.64
2019-04-10T02:25:45.131Z,57.67
2019-04-10T02:28:16.815Z,57.67
2019-04-10T02:30:50.113Z,57.65
2019-04-10T02:33:23.250Z,57.63
2019-04-10T02:35:55.006Z,57.63
2019-04-10T02:38:43.077Z,57.61
2019-04-10T02:41:01.543Z,57.62
2019-04-10T02:43:33.651Z,57.61
2019-04-10T02:46:06.449Z,57.61
2019-04-10T02:48:39.423Z,57.59
2019-04-10T02:51:11.415Z,57.59
2019-04-10T02:53:43.806Z,57.59
2019-04-10T02:56:15.984Z,57.58
2019-04-10T02:58:49.166Z,57.57
2019-04-10T03:01:21.026Z,57.55
2019-04-10T03:03:54.813Z,57.59
2019-04-10T03:06:27.278Z,57.60
2019-04-10T03:09:14.654Z,57.67
2019-04-10T03:11:33.046Z,57.70
2019-04-10T03:14:05.730Z,57.73
2019-04-10T03:16:37.594Z,57.74
2019-04-10T03:19:09.523Z,57.78
2019-04-10T03:21:41.159Z,57.79
2019-04-10T03:24:13.685Z,57.81
2019-04-10T03:26:46.373Z,57.83
2019-04-10T03:29:18.632Z,57.86
2019-04-10T03:31:52.266Z,57.88
2019-04-10T03:34:28.405Z,57.90
2019-04-10T03:37:00.001Z,57.95
2019-04-10T03:39:34.789Z,57.97
2019-04-10T03:42:06.524Z,58.00
2019-04-10T03:44:38.890Z,58.06
2019-04-10T03:47:11.287Z,58.09
2019-04-10T03:49:42.978Z,58.13
2019-04-10T03:52:14.671Z,58.17
2019-04-10T03:54:46.347Z,58.26
2019-04-10T03:57:18.427Z,58.35
2019-04-10T03:59:50.313Z,58.41
2019-04-10T04:02:22.055Z,58.46
2019-04-10T04:04:53.839Z,58.54
2019-04-10T04:07:26.987Z,58.64
2019-04-10T04:09:58.952Z,58.72
2019-04-10T04:12:31.073Z,58.72
2019-04-10T04:15:03.639Z,58.81
2019-04-10T04:17:36.019Z,58.85
2019-04-10T04:20:08.122Z,59.02
2019-04-10T04:22:39.808Z,59.14
2019-04-10T04:25:12.729Z,59.23
2019-04-10T04:27:44.473Z,59.35
2019-04-10T04:30:17.086Z,59.42
2019-04-10T04:32:48.665Z,59.47
2019-04-10T04:35:20.309Z,59.53
2019-04-10T04:37:52.635Z,59.58
2019-04-10T04:40:24.426Z,59.66
2019-04-10T04:42:56.058Z,59.74
2019-04-10T04:45:27.906Z,59.83
2019-04-10T04:47:59.810Z,59.93
2019-04-10T04:50:31.431Z,60.03
2019-04-10T04:53:04.252Z,60.12
2019-04-10T04:55:36.109Z,60.14
2019-04-10T04:58:07.822Z,60.15
2019-04-10T05:00:39.685Z,60.22
2019-04-10T05:03:12.019Z,60.28
2019-04-10T05:05:43.851Z,60.29
2019-04-10T05:08:15.479Z,60.29
2019-04-10T05:10:48.001Z,60.28
2019-04-10T05:13:19.643Z,60.31
2019-04-10T05:15:51.667Z,60.31
2019-04-10T05:18:23.371Z,60.37
2019-04-10T05:20:55.005Z,60.47
2019-04-10T05:23:26.657Z,60.56
2019-04-10T05:25:59.161Z,60.60
2019-04-10T05:28:32.658Z,60.62
2019-04-10T05:31:04.866Z,60.64
2019-04-10T05:33:36.821Z,60.63
2019-04-10T05:36:08.946Z,60.64
2019-04-10T05:38:41.857Z,60.66
2019-04-10T05:41:13.811Z,60.66
2019-04-10T05:43:45.511Z,60.66
2019-04-10T05:46:17.184Z,60.73
2019-04-10T05:48:49.159Z,60.75
2019-04-10T05:51:21.328Z,60.76
2019-04-10T05:53:55.307Z,60.79
2019-04-10T05:56:26.415Z,60.79
2019-04-10T05:58:58.658Z,60.80
2019-04-10T06:01:35.508Z,60.84
2019-04-10T06:04:03.804Z,60.87
2019-04-10T06:06:36.431Z,60.88
2019-04-10T06:09:09.826Z,60.94
2019-04-10T06:11:43.843Z,61.00
2019-04-10T06:14:15.780Z,61.06
2019-04-10T06:16:47.525Z,61.13
2019-04-10T06:19:19.986Z,61.16
2019-04-10T06:21:52.428Z,61.18
2019-04-10T06:24:24.516Z,61.10
2019-04-10T06:26:56.517Z,61.05
2019-04-10T06:29:28.825Z,61.04
2019-04-10T06:32:01.117Z,61.04
2019-04-10T06:34:34.182Z,61.04
2019-04-10T06:37:06.179Z,61.06
2019-04-10T06:39:38.596Z,61.12
2019-04-10T06:42:10.262Z,61.13
2019-04-10T06:44:42.029Z,61.14
2019-04-10T06:47:13.893Z,61.14
2019-04-10T06:49:46.047Z,61.06
2019-04-10T06:52:18.573Z,60.96
2019-04-10T06:54:51.105Z,60.89
2019-04-10T06:57:23.044Z,60.89
2019-04-10T06:59:54.991Z,60.87
2019-04-10T07:02:29.540Z,60.81
2019-04-10T07:05:05.876Z,60.80
2019-04-10T07:07:47.547Z,60.72
2019-04-10T07:10:22.607Z,60.62
2019-04-10T07:12:46.181Z,60.58
2019-04-10T07:15:21.135Z,60.29
2019-04-10T07:17:51.898Z,60.17
2019-04-10T07:20:24.085Z,60.12
2019-04-10T07:22:57.024Z,59.97
2019-04-10T07:25:29.894Z,59.93
2019-04-10T07:28:02.766Z,59.83
2019-04-10T07:30:35.973Z,59.56
2019-04-10T07:33:08.004Z,59.35
2019-04-10T07:35:40.500Z,59.25
2019-04-10T07:38:12.155Z,59.18
2019-04-10T07:40:46.962Z,59.24
2019-04-10T07:43:20.738Z,59.21
2019-04-10T07:45:50.944Z,58.92
2019-04-10T07:48:23.100Z,58.76
2019-04-10T07:50:55.810Z,58.58
2019-04-10T07:53:28.096Z,58.38
2019-04-10T07:56:06.462Z,58.34
2019-04-10T07:58:35.496Z,58.23
2019-04-10T08:01:07.902Z,58.31
2019-04-10T08:03:39.801Z,58.15
2019-04-10T08:06:11.689Z,57.97
2019-04-10T08:08:43.333Z,57.78
2019-04-10T08:11:15.503Z,57.67
2019-04-10T08:13:47.526Z,57.52
2019-04-10T08:16:19.166Z,57.39
2019-04-10T08:18:52.138Z,57.29
2019-04-10T08:21:23.963Z,57.27
2019-04-10T08:23:55.692Z,56.98
2019-04-10T08:26:28.171Z,57.03
2019-04-10T08:29:01.974Z,56.89
2019-04-10T08:31:34.120Z,56.83
2019-04-10T08:34:06.675Z,56.61
2019-04-10T08:36:39.502Z,56.65
2019-04-10T08:39:11.452Z,56.11
2019-04-10T08:41:43.764Z,56.00
2019-04-10T08:44:15.705Z,56.17
2019-04-10T08:46:48.294Z,56.09
2019-04-10T08:49:21.339Z,55.81
2019-04-10T08:51:53.346Z,55.73
2019-04-10T08:54:25.891Z,55.58
2019-04-10T08:56:57.966Z,55.60
2019-04-10T08:59:30.045Z,55.31
2019-04-10T09:02:02.025Z,55.27
2019-04-10T09:04:33.875Z,55.09
2019-04-10T09:07:06.796Z,55.12
2019-04-10T09:09:40.257Z,55.01
2019-04-10T09:12:11.945Z,54.79
2019-04-10T09:14:43.987Z,54.43
2019-04-10T09:17:15.646Z,54.27
2019-04-10T09:19:47.412Z,53.80
2019-04-10T09:22:19.109Z,53.54
2019-04-10T09:24:50.843Z,53.45
2019-04-10T09:27:22.556Z,53.44
2019-04-10T09:29:54.764Z,53.16
2019-04-10T09:32:26.597Z,53.13
2019-04-10T09:34:58.310Z,53.02
2019-04-10T09:37:31.175Z,52.83
2019-04-10T09:40:03.681Z,52.56
2019-04-10T09:42:35.453Z,52.54
2019-04-10T09:45:07.796Z,52.35
2019-04-10T09:47:39.623Z,52.32
2019-04-10T09:50:11.707Z,52.04
2019-04-10T09:52:44.035Z,52.05
2019-04-10T09:55:16.021Z,51.94
2019-04-10T09:57:48.101Z,51.92
2019-04-10T10:00:21.367Z,51.93
2019-04-10T10:02:53.082Z,51.86
2019-04-10T10:05:24.794Z,51.94
2019-04-10T10:07:56.713Z,51.78
2019-04-10T10:10:29.038Z,51.60
2019-04-10T10:13:01.272Z,51.56
2019-04-10T10:15:33.589Z,51.40
2019-04-10T10:18:05.515Z,51.38
2019-04-10T10:20:39.874Z,51.24
2019-04-10T10:23:11.762Z,50.97
2019-04-10T10:25:43.772Z,50.88
2019-04-10T10:28:15.788Z,50.94
2019-04-10T10:30:48.127Z,50.96
2019-04-10T10:33:20.164Z,50.79
2019-04-10T10:35:52.157Z,50.58
2019-04-10T10:38:23.856Z,50.53
2019-04-10T10:40:55.575Z,50.47
2019-04-10T10:43:28.693Z,49.97
2019-04-10T10:46:00.993Z,49.83
2019-04-10T10:48:32.724Z,49.63
2019-04-10T10:51:04.636Z,49.45
2019-04-10T10:53:36.487Z,49.33
2019-04-10T10:56:08.261Z,49.22
2019-04-10T10:58:39.963Z,49.05
2019-04-10T11:01:11.653Z,48.94
2019-04-10T11:03:44.575Z,48.85
2019-04-10T11:06:17.734Z,48.64
2019-04-10T11:08:49.499Z,48.53
2019-04-10T11:11:22.614Z,48.57
2019-04-10T11:13:55.106Z,48.41
2019-04-10T11:16:27.433Z,48.42
2019-04-10T11:18:59.701Z,48.35
2019-04-10T11:21:32.461Z,48.28
2019-04-10T11:24:04.712Z,48.50
2019-04-10T11:26:37.581Z,48.37
2019-04-10T11:29:10.001Z,48.15
2019-04-10T11:31:42.197Z,48.13
2019-04-10T11:34:14.194Z,48.10
2019-04-10T11:36:45.939Z,47.86
2019-04-10T11:39:23.338Z,47.76
2019-04-10T11:41:52.679Z,47.71
2019-04-10T11:44:24.896Z,47.66
2019-04-10T11:46:58.718Z,47.53
2019-04-10T11:49:31.610Z,47.59
2019-04-10T11:52:06.259Z,47.49
2019-04-10T11:54:41.273Z,47.55
2019-04-10T11:57:13.201Z,47.62
2019-04-10T11:59:47.381Z,47.81
2019-04-10T12:02:21.840Z,48.01
2019-04-10T12:04:55.697Z,48.14
2019-04-10T12:12:33.401Z,48.41
2019-04-10T12:15:06.337Z,48.49
2019-04-10T12:17:38.239Z,48.55
2019-04-10T12:20:11.190Z,48.41
2019-04-10T12:22:43.908Z,48.31
2019-04-10T12:25:16.691Z,48.28
2019-04-10T12:27:49.411Z,48.26
2019-04-10T12:30:21.771Z,48.21
2019-04-10T12:32:53.495Z,48.10
2019-04-10T12:35:25.898Z,48.02
2019-04-10T12:38:02.680Z,47.94
2019-04-10T12:40:31.097Z,47.89
2019-04-10T12:43:02.951Z,47.89
2019-04-10T12:45:34.713Z,47.62
2019-04-10T12:48:06.601Z,47.57
2019-04-10T12:50:39.118Z,47.57
2019-04-10T12:53:11.621Z,47.47
2019-04-10T12:55:43.837Z,47.33
2019-04-10T12:58:17.542Z,47.42
2019-04-10T13:00:50.494Z,47.42
2019-04-10T13:03:23.069Z,47.34
2019-04-10T13:05:55.670Z,47.09
2019-04-10T13:08:47.347Z,47.01
2019-04-10T13:11:01.134Z,47.03
2019-04-10T13:13:33.851Z,46.90
2019-04-10T13:16:05.734Z,46.82
2019-04-10T13:18:38.536Z,46.77
2019-04-10T13:21:10.533Z,46.52
2019-04-10T13:23:42.220Z,46.32
2019-04-10T13:26:13.898Z,46.25
2019-04-10T13:28:45.727Z,45.96
2019-04-10T13:31:17.732Z,45.86
2019-04-10T13:33:49.678Z,45.85
2019-04-10T13:36:21.779Z,45.75
2019-04-10T13:38:54.797Z,45.70
2019-04-10T13:41:26.443Z,45.45
2019-04-10T13:43:58.538Z,45.24
2019-04-10T13:46:31.017Z,45.18
2019-04-10T13:49:03.740Z,45.17
2019-04-10T13:51:37.277Z,45.21
2019-04-10T13:54:10.329Z,44.96
2019-04-10T13:56:42.065Z,44.94
2019-04-10T13:59:15.222Z,44.70
2019-04-10T14:01:48.109Z,44.52
2019-04-10T14:04:19.981Z,44.42
2019-04-10T14:06:51.864Z,44.41
2019-04-10T14:09:34.771Z,44.38
2019-04-10T14:11:57.550Z,44.26
2019-04-10T14:14:29.513Z,43.94
2019-04-10T14:17:04.112Z,43.93
2019-04-10T14:19:35.233Z,43.81
2019-04-10T14:22:07.200Z,43.79
2019-04-10T14:24:44.180Z,43.40
2019-04-10T14:27:16.072Z,43.33
2019-04-10T14:29:48.959Z,43.21
2019-04-10T14:32:35.717Z,43.04
2019-04-10T14:35:09.969Z,42.94
2019-04-10T14:37:41.758Z,42.90
2019-04-10T14:40:13.923Z,42.78
2019-04-10T14:42:45.952Z,42.69
2019-04-10T14:45:17.958Z,42.79
2019-04-10T14:47:50.365Z,42.58
2019-04-10T14:50:29.479Z,42.62
2019-04-10T14:53:01.493Z,42.59
2019-04-10T14:55:33.484Z,42.62
2019-04-10T14:58:07.492Z,42.54
2019-04-10T15:00:49.700Z,42.59
2019-04-10T15:03:22.854Z,42.47
2019-04-10T15:05:56.782Z,42.54
2019-04-10T15:08:28.016Z,42.59
2019-04-10T15:11:00.327Z,42.55
2019-04-10T15:13:32.134Z,42.39
2019-04-10T15:16:04.943Z,42.40
2019-04-10T15:18:37.182Z,42.36
2019-04-10T15:21:08.913Z,42.18
2019-04-10T15:23:40.637Z,42.13
2019-04-10T15:26:14.267Z,42.15
2019-04-10T15:28:46.096Z,42.11
2019-04-10T15:31:19.390Z,42.19
2019-04-10T15:33:51.800Z,42.12
2019-04-10T15:36:25.029Z,41.93
2019-04-10T15:38:58.193Z,41.78
2019-04-10T15:41:30.755Z,41.67
2019-04-10T15:44:04.189Z,41.71
2019-04-10T15:46:35.967Z,41.64
2019-04-10T15:49:07.653Z,41.65
2019-04-10T15:51:39.445Z,41.60
2019-04-10T15:54:11.781Z,41.86
2019-04-10T15:56:44.417Z,42.12
2019-04-10T15:59:16.447Z,42.29
2019-04-10T16:01:48.963Z,42.30
2019-04-10T16:04:21.174Z,42.25
2019-04-10T16:06:53.723Z,42.43
2019-04-10T16:09:27.285Z,42.61
2019-04-10T16:12:06.301Z,42.68
2019-04-10T16:14:38.101Z,42.78
2019-04-10T16:17:36.135Z,42.81
2019-04-10T16:20:25.145Z,42.82
2019-04-10T16:23:18.500Z,42.98
2019-04-10T16:25:52.414Z,43.02
2019-04-10T16:28:24.614Z,43.04
2019-04-10T16:30:57.225Z,43.13
2019-04-10T16:33:29.472Z,43.21
2019-04-10T16:36:01.116Z,43.26
2019-04-10T16:38:33.103Z,43.25
2019-04-10T16:41:04.844Z,43.32
2019-04-10T16:43:36.529Z,43.38
2019-04-10T16:46:08.538Z,43.43
2019-04-10T16:48:40.448Z,43.43
2019-04-10T16:51:12.295Z,43.47
2019-04-10T16:53:44.166Z,43.48
2019-04-10T16:56:16.201Z,43.49
2019-04-10T16:58:48.124Z,43.57
2019-04-10T17:01:20.508Z,43.58
2019-04-10T17:03:52.528Z,43.60
2019-04-10T17:06:24.293Z,43.63
2019-04-10T17:08:56.427Z,43.64
2019-04-10T17:11:29.145Z,43.66
2019-04-10T17:14:02.746Z,43.71
2019-04-10T17:16:34.564Z,43.74
2019-04-10T17:19:07.614Z,43.76
2019-04-10T17:21:40.661Z,43.76
2019-04-10T17:24:13.388Z,43.78
2019-04-10T17:26:45.214Z,43.79
2019-04-10T17:29:17.061Z,43.82
2019-04-10T17:31:49.159Z,43.83
2019-04-10T17:34:20.869Z,43.82
2019-04-10T17:36:53.550Z,43.86
2019-04-10T17:39:25.242Z,43.89
2019-04-10T17:41:57.825Z,43.93
2019-04-10T17:44:29.860Z,43.96
2019-04-10T17:47:01.966Z,44.03
2019-04-10T17:49:33.957Z,44.05
2019-04-10T17:52:06.315Z,44.07
2019-04-10T17:54:38.718Z,44.14
2019-04-10T17:57:10.775Z,44.17
2019-04-10T17:59:42.815Z,44.27
2019-04-10T18:02:15.732Z,44.34
2019-04-10T18:04:48.318Z,44.44
2019-04-10T18:07:21.714Z,44.51
2019-04-10T18:09:53.436Z,44.62
2019-04-10T18:12:25.317Z,44.73
2019-04-10T18:14:57.630Z,44.85
2019-04-10T18:17:29.459Z,44.92
2019-04-10T18:20:01.180Z,44.93
2019-04-10T18:22:34.322Z,44.95
2019-04-10T18:25:06.643Z,45.03
2019-04-10T18:27:38.696Z,45.00
2019-04-10T18:30:11.000Z,45.03
2019-04-10T18:32:43.910Z,45.10
2019-04-10T18:35:16.401Z,45.17
2019-04-10T18:37:49.102Z,45.25
2019-04-10T18:40:21.188Z,45.34
2019-04-10T18:42:55.850Z,45.47
2019-04-10T18:45:26.611Z,45.65
2019-04-10T18:47:58.543Z,45.88
2019-04-10T18:50:30.389Z,46.11
2019-04-10T18:53:02.280Z,46.31
2019-04-10T18:55:34.038Z,46.46
2019-04-10T18:58:09.505Z,46.57
2019-04-10T19:00:54.952Z,46.62
2019-04-10T19:03:50.162Z,46.60
2019-04-10T19:06:22.516Z,46.58
2019-04-10T19:09:07.456Z,46.50
2019-04-10T19:11:33.280Z,46.39
2019-04-10T19:14:02.095Z,46.22
2019-04-10T19:16:35.163Z,46.08
2019-04-10T19:19:08.099Z,45.97
2019-04-10T19:21:40.106Z,45.89
2019-04-10T19:24:12.302Z,45.80
2019-04-10T19:26:45.354Z,45.74
2019-04-10T19:29:17.699Z,45.71
2019-04-10T19:31:54.034Z,45.63
2019-04-10T19:34:25.949Z,45.50
2019-04-10T19:36:58.391Z,45.39
2019-04-10T19:39:30.343Z,45.32
2019-04-10T19:42:02.864Z,45.26
2019-04-10T19:44:35.196Z,45.14
2019-04-10T19:47:08.245Z,45.06
2019-04-10T19:49:41.289Z,44.94
2019-04-10T19:52:14.107Z,44.83
2019-04-10T19:54:47.156Z,44.77
2019-04-10T19:57:19.337Z,44.65
2019-04-10T19:59:52.294Z,44.56
2019-04-10T20:02:24.693Z,44.45
2019-04-10T20:04:56.962Z,44.30
2019-04-10T20:07:29.035Z,44.25
2019-04-10T20:10:02.282Z,44.24
2019-04-10T20:12:34.946Z,44.17
2019-04-10T20:15:06.883Z,44.04
2019-04-10T20:17:38.602Z,44.00
2019-04-10T20:20:11.003Z,43.88
2019-04-10T20:22:43.820Z,43.87
2019-04-10T20:25:16.464Z,43.80
2019-04-10T20:27:48.435Z,43.76
2019-04-10T20:30:22.197Z,43.75
2019-04-10T20:32:56.468Z,43.71
2019-04-10T20:35:28.652Z,43.62
2019-04-10T20:38:01.011Z,43.61
2019-04-10T20:40:33.947Z,43.60
2019-04-10T20:43:06.774Z,43.53
2019-04-10T20:45:39.863Z,43.42
2019-04-10T20:48:12.068Z,43.42
2019-04-10T20:50:44.055Z,43.38
2019-04-10T20:53:15.998Z,43.37
2019-04-10T20:55:48.197Z,43.16
2019-04-10T20:58:20.259Z,43.23
2019-04-10T21:00:51.965Z,43.26
2019-04-10T21:03:25.220Z,43.22
2019-04-10T21:05:58.360Z,43.25
2019-04-10T21:08:30.145Z,43.23
2019-04-10T21:11:01.936Z,43.25
2019-04-10T21:13:34.059Z,43.24
2019-04-10T21:16:07.024Z,43.28
2019-04-10T21:18:39.742Z,43.31
2019-04-10T21:21:12.343Z,43.27
2019-04-10T21:23:44.350Z,43.21
2019-04-10T21:26:16.389Z,43.18
2019-04-10T21:28:48.249Z,43.09
2019-04-10T21:31:38.691Z,42.98
2019-04-10T21:34:32.554Z,42.97
2019-04-10T21:37:04.288Z,43.03
2019-04-10T21:39:36.123Z,43.03
2019-04-10T21:42:14.792Z,43.16
2019-04-10T21:44:41.277Z,43.24
2019-04-10T21:47:13.153Z,43.31
2019-04-10T21:49:44.814Z,43.32
2019-04-10T21:52:16.533Z,43.30
2019-04-10T21:54:52.603Z,43.20
2019-04-10T21:57:22.308Z,43.17
2019-04-10T21:59:54.134Z,43.19
2019-04-10T22:02:26.014Z,43.16
2019-04-10T22:04:59.622Z,43.14
2019-04-10T22:07:48.427Z,42.96
2019-04-10T22:10:34.271Z,42.90
2019-04-10T22:13:05.981Z,42.91
2019-04-10T22:15:43.350Z,42.82
2019-04-10T22:18:16.962Z,42.82
2019-04-10T22:20:49.891Z,42.69
2019-04-10T22:23:22.442Z,42.71
2019-04-10T22:25:54.305Z,42.69
2019-04-10T22:28:26.216Z,42.66
2019-04-10T22:30:58.348Z,42.66
2019-04-10T22:33:30.065Z,42.53
2019-04-10T22:36:01.808Z,42.58
2019-04-10T22:38:33.522Z,42.51
2019-04-10T22:41:17.368Z,42.51
2019-04-10T22:43:38.737Z,42.47
2019-04-10T22:46:10.934Z,42.43
2019-04-10T22:48:43.684Z,42.36
2019-04-10T22:51:15.644Z,42.36
2019-04-10T22:53:47.950Z,42.38
2019-04-10T22:56:20.852Z,42.28
2019-04-10T22:58:53.267Z,42.27
2019-04-10T23:01:25.415Z,42.19
2019-04-10T23:03:57.398Z,42.21
2019-04-10T23:06:29.287Z,42.23
2019-04-10T23:09:02.057Z,42.18
2019-04-10T23:11:41.130Z,42.14
2019-04-10T23:14:07.102Z,42.07
2019-04-10T23:16:40.070Z,42.09
2019-04-10T23:19:12.028Z,42.03
2019-04-10T23:21:43.641Z,42.02
2019-04-10T23:24:16.808Z,41.99
2019-04-10T23:26:49.271Z,42.04
2019-04-10T23:29:20.927Z,42.04
2019-04-10T23:31:52.815Z,42.00
2019-04-10T23:34:25.085Z,42.05
2019-04-10T23:36:56.882Z,42.09
2019-04-10T23:39:28.495Z,42.04
2019-04-10T23:42:01.141Z,42.05
2019-04-10T23:44:33.175Z,42.04
2019-04-10T23:47:06.036Z,41.99
2019-04-10T23:49:37.675Z,42.09
2019-04-10T23:52:09.695Z,42.16
2019-04-10T23:54:41.629Z,42.15
2019-04-10T23:57:13.587Z,42.17
2019-04-10T23:59:46.736Z,42.14
